Date,TemperatureHighF,TemperatureAvgF,TemperatureLowF,DewpointHighF,DewpointAvgF,DewpointLowF,HumidityHigh,HumidityAvg,HumidityLow,PressureMaxIn,PressureMinIn,WindSpeedMaxMPH,WindSpeedAvgMPH,GustSpeedMaxMPH,PrecipitationSumIn
2013-2-1,59.5,43.9,30.5,28.0,22.7,19.0,68,46,21,30.46,30.38,5,1,0,0.00
2013-2-2,61.2,48.3,37.8,25.0,20.0,14.0,48,35,16,30.46,30.35,6,1,0,0.00
2013-2-3,62.9,48.5,42.4,38.0,26.3,20.0,71,44,20,30.36,30.14,11,1,0,0.00
2013-2-4,60.2,47.7,37.9,36.0,33.6,30.0,77,60,40,30.21,30.11,11,1,0,0.00
2013-2-5,59.9,47.1,36.3,38.0,32.5,27.0,85,60,31,30.20,30.10,6,1,0,0.00
2013-2-6,58.2,48.3,39.3,33.0,30.5,26.0,72,52,30,30.19,30.06,8,1,0,0.00
2013-2-7,56.4,44.0,33.1,35.0,28.8,23.0,85,58,31,30.28,30.20,6,1,0,0.00
2013-2-8,59.1,49.1,37.9,23.0,16.9,5.0,54,29,15,30.20,29.90,9,2,0,0.00
2013-2-9,43.5,34.8,24.7,28.0,21.8,14.0,86,61,35,30.24,29.83,13,2,0,0.00
2013-2-10,48.2,34.9,20.9,22.0,11.5,-6.0,83,46,11,30.29,30.18,7,1,0,0.00
2013-2-11,43.8,35.2,26.1,28.0,17.4,6.0,90,52,31,30.30,30.12,16,2,0,0.00
2013-2-12,40.6,29.8,18.8,25.0,17.6,5.0,90,64,24,30.48,30.30,7,0,0,0.01
2013-2-13,49.7,34.5,20.7,19.0,15.8,13.0,76,50,26,30.46,30.35,6,0,0,0.00
2013-2-14,56.1,40.9,28.2,20.0,16.5,11.0,58,40,22,30.39,30.26,8,1,0,0.00
2013-2-15,55.4,42.6,32.7,23.0,16.0,1.0,59,38,12,30.49,30.33,7,1,0,0.00
2013-2-16,57.6,43.0,30.0,16.0,11.8,5.0,51,30,13,30.52,30.29,11,2,0,0.00
2013-2-17,62.2,48.2,33.5,16.0,8.6,3.0,35,22,12,30.29,30.06,11,1,0,0.00
2013-2-18,59.5,47.1,29.7,16.0,11.1,8.0,45,25,13,30.21,30.11,6,1,0,0.00
2013-2-19,53.6,47.5,41.5,37.0,23.9,6.0,75,42,18,30.13,29.87,12,2,0,0.00
2013-2-20,40.4,32.6,24.7,31.0,24.4,17.0,91,74,42,30.11,29.79,12,3,0,0.00
2013-2-21,41.2,29.6,17.3,30.0,22.8,14.0,92,77,47,30.32,30.11,7,1,0,0.00
2013-2-22,46.2,34.4,24.4,28.0,25.1,21.0,89,71,44,30.38,30.25,7,1,0,0.00
2013-2-23,57.7,41.6,23.4,28.0,21.6,17.0,82,50,21,30.37,30.05,9,1,0,0.00
2013-2-24,45.7,36.9,25.2,21.0,10.9,-1.0,49,35,17,30.23,29.90,20,4,0,0.00
2013-2-25,49.1,34.3,24.1,14.0,9.0,4.0,57,37,17,30.42,30.24,9,1,0,0.00
2013-2-26,57.2,40.6,26.1,16.0,7.0,-3.0,44,27,13,30.30,30.16,9,2,0,0.00
2013-2-27,52.0,38.9,25.1,14.0,10.0,6.0,62,33,17,30.41,30.27,7,1,0,0.00
2013-2-28,53.0,39.2,25.6,10.0,5.1,-3.0,46,27,11,30.56,30.39,9,1,0,0.00